Time;durP1;ratioP1;P1;durP2;ratioP2;P2;SDS_P1;SDS_P2;PMS_P1;PMS_P2;Temp;Humidity;BMP_temperature;BMP_pressure;BME280_temperature;BME280_humidity;BME280_pressure;Samples;Min_cycle;Max_cycle;Signal;HPM_P1;HPM_P2
2022/09/11 00:00:45;;;;;;;16.10;14.40;;;15.30;99.90;;;;;;5050099;28;20456;-52
2022/09/11 00:03:11;;;;;;;23.50;16.17;;;15.20;99.90;;;;;;5050336;28;20510;-51
2022/09/11 00:05:39;;;;;;;16.37;14.73;;;15.20;99.90;;;;;;5050001;28;20951;-52
2022/09/11 00:08:06;;;;;;;16.33;14.70;;;15.20;99.90;;;;;;5049783;28;20429;-48
2022/09/11 00:10:38;;;;;;;16.03;14.40;;;15.20;99.90;;;;;;5049745;28;20460;-48
2022/09/11 00:13:15;;;;;;;17.47;15.67;;;15.10;99.90;;;;;;5050383;28;20767;-51
2022/09/11 00:15:43;;;;;;;16.83;14.83;;;15.10;99.90;;;;;;5048766;28;20422;-50
2022/09/11 00:18:12;;;;;;;17.63;15.83;;;15.10;99.90;;;;;;5049575;28;20471;-51
2022/09/11 00:20:38;;;;;;;16.67;14.97;;;15.00;99.90;;;;;;5057808;28;20464;-50
2022/09/11 00:23:04;;;;;;;17.23;15.40;;;15.00;99.90;;;;;;5049705;28;20428;-50
2022/09/11 00:25:33;;;;;;;15.03;13.60;;;15.00;99.90;;;;;;5048758;28;20424;-52
2022/09/11 00:27:59;;;;;;;16.90;15.20;;;15.00;99.90;;;;;;5049423;28;20822;-52
2022/09/11 00:30:25;;;;;;;16.37;14.77;;;15.00;99.90;;;;;;5050004;28;20479;-48
2022/09/11 00:32:51;;;;;;;17.47;15.67;;;14.90;99.90;;;;;;5049867;28;20811;-48
2022/09/11 00:35:16;;;;;;;14.70;13.20;;;14.90;99.90;;;;;;5049513;28;20424;-50
2022/09/11 00:37:42;;;;;;;17.37;15.37;;;14.90;99.90;;;;;;5049211;28;20239;-47
2022/09/11 00:40:08;;;;;;;15.50;13.87;;;14.80;99.90;;;;;;5049738;28;20214;-49
2022/09/11 00:42:34;;;;;;;14.83;13.20;;;14.80;99.90;;;;;;5049714;28;20636;-50
2022/09/11 00:45:03;;;;;;;15.53;13.83;;;14.80;99.90;;;;;;5055083;28;20427;-49
2022/09/11 00:47:30;;;;;;;16.10;14.50;;;14.80;99.90;;;;;;5047802;28;20819;-51
2022/09/11 00:50:11;;;;;;;16.17;14.47;;;14.80;99.90;;;;;;5036144;28;20420;-48
2022/09/11 00:52:47;;;;;;;15.93;14.33;;;14.80;99.90;;;;;;5053783;28;20492;-48
2022/09/11 00:55:17;;;;;;;16.10;14.40;;;14.80;99.90;;;;;;5053834;28;20744;-50
2022/09/11 00:57:53;;;;;;;16.90;15.10;;;14.70;99.90;;;;;;5053100;28;20423;-50
2022/09/11 01:00:19;;;;;;;17.50;15.67;;;14.70;99.90;;;;;;5052748;28;20558;-52
2022/09/11 01:02:48;;;;;;;17.10;15.17;;;14.70;99.90;;;;;;5058168;28;20408;-52
2022/09/11 01:05:15;;;;;;;17.17;15.33;;;14.70;99.90;;;;;;5053536;28;20471;-48
2022/09/11 01:07:42;;;;;;;17.10;15.37;;;14.80;99.90;;;;;;5053010;28;20440;-48
2022/09/11 01:10:09;;;;;;;17.33;15.50;;;14.80;99.90;;;;;;5053364;28;20448;-51
2022/09/11 01:13:16;;;;;;;20.60;16.03;;;14.80;99.90;;;;;;5052230;28;20958;-49
2022/09/11 01:15:52;;;;;;;17.53;15.40;;;14.80;99.90;;;;;;5046943;28;20453;-49
2022/09/11 01:18:29;;;;;;;18.50;16.70;;;14.90;99.90;;;;;;5051424;28;21157;-50
2022/09/11 01:21:04;;;;;;;19.60;17.50;;;14.90;99.90;;;;;;5062996;28;20427;-51
2022/09/11 01:23:49;;;;;;;19.77;17.60;;;14.90;99.90;;;;;;5053173;28;20583;-48
2022/09/11 01:26:24;;;;;;;21.90;17.93;;;14.90;99.90;;;;;;5053176;28;20416;-50
2022/09/11 01:28:57;;;;;;;20.60;17.90;;;14.90;99.90;;;;;;5055838;28;20558;-49
2022/09/11 01:31:27;;;;;;;21.73;19.47;;;15.00;99.90;;;;;;5053239;28;20422;-52
2022/09/11 01:34:08;;;;;;;22.70;19.90;;;15.00;99.90;;;;;;5052864;28;20985;-50
2022/09/11 01:36:45;;;;;;;20.93;18.73;;;15.10;99.90;;;;;;5050231;28;20412;-49
2022/09/11 01:39:12;;;;;;;27.23;20.70;;;15.20;99.90;;;;;;5051705;28;20455;-50
2022/09/11 01:41:47;;;;;;;25.17;20.97;;;15.20;99.90;;;;;;5050236;28;20420;-47
2022/09/11 01:44:27;;;;;;;23.20;19.83;;;15.30;99.90;;;;;;5052754;28;20909;-46
2022/09/11 01:46:54;;;;;;;26.40;20.87;;;15.30;99.90;;;;;;5050847;28;20497;-49
2022/09/11 01:49:26;;;;;;;24.67;20.60;;;15.30;99.90;;;;;;5052805;28;20420;-51
2022/09/11 01:51:59;;;;;;;24.10;20.00;;;15.20;99.90;;;;;;5047887;28;20417;-50
2022/09/11 01:54:30;;;;;;;26.30;21.30;;;15.20;99.90;;;;;;5052567;28;20431;-50
2022/09/11 01:57:03;;;;;;;23.07;20.20;;;15.20;99.90;;;;;;5052278;28;20424;-48
2022/09/11 01:59:39;;;;;;;24.00;19.50;;;15.30;99.90;;;;;;5052595;28;20456;-49
2022/09/11 02:02:08;;;;;;;21.10;18.40;;;15.30;99.90;;;;;;5051706;28;20419;-45
2022/09/11 02:04:50;;;;;;;24.23;20.37;;;15.30;99.90;;;;;;5051000;28;20432;-51
2022/09/11 02:07:23;;;;;;;26.20;20.30;;;15.40;99.90;;;;;;5050729;28;20960;-48
2022/09/11 02:09:58;;;;;;;25.83;20.87;;;15.40;99.90;;;;;;5051650;28;20421;-52
2022/09/11 02:12:27;;;;;;;25.43;21.27;;;15.40;99.90;;;;;;5052350;28;20503;-48
2022/09/11 02:14:54;;;;;;;25.00;21.00;;;15.40;99.90;;;;;;5052407;28;20795;-48
2022/09/11 02:17:30;;;;;;;21.83;19.10;;;15.40;99.90;;;;;;5051403;28;20431;-48
2022/09/11 02:19:59;;;;;;;26.73;21.27;;;15.40;99.90;;;;;;5060844;28;20458;-50
2022/09/11 02:22:25;;;;;;;24.40;20.13;;;15.50;99.90;;;;;;5054811;28;20469;-51
2022/09/11 02:24:51;;;;;;;22.63;19.70;;;15.40;99.90;;;;;;5052245;28;21070;-48
2022/09/11 02:27:25;;;;;;;23.87;20.43;;;15.50;99.90;;;;;;5051436;28;20437;-50
2022/09/11 02:29:52;;;;;;;26.20;21.70;;;15.50;99.90;;;;;;5052007;28;20455;-51
2022/09/11 02:32:19;;;;;;;28.10;21.27;;;15.50;99.90;;;;;;5052017;28;20859;-48
2022/09/11 02:34:47;;;;;;;24.93;22.23;;;15.50;99.90;;;;;;5051989;28;20448;-52
2022/09/11 02:37:37;;;;;;;29.93;22.17;;;15.50;99.90;;;;;;5051288;28;20416;-50
2022/09/11 02:40:42;;;;;;;26.87;21.10;;;15.50;99.90;;;;;;5051838;28;20463;-49
2022/09/11 02:43:27;;;;;;;29.80;22.97;;;15.50;99.90;;;;;;5051908;28;20819;-51
2022/09/11 02:46:21;;;;;;;27.30;22.20;;;15.50;99.90;;;;;;5051914;28;20423;-49
2022/09/11 02:49:26;;;;;;;25.07;21.67;;;15.50;99.90;;;;;;5043635;28;20417;-46
2022/09/11 02:52:03;;;;;;;28.50;23.07;;;15.40;99.90;;;;;;5040395;28;20412;-48
2022/09/11 02:55:07;;;;;;;27.40;22.77;;;15.40;99.90;;;;;;5051407;28;20411;-52
2022/09/11 02:57:41;;;;;;;23.80;19.97;;;15.40;99.90;;;;;;5051082;28;20424;-50
2022/09/11 03:00:08;;;;;;;29.83;23.43;;;15.40;99.90;;;;;;5051542;28;20830;-49
2022/09/11 03:02:38;;;;;;;30.33;23.50;;;15.40;99.90;;;;;;5051373;28;20420;-48
2022/09/11 03:05:05;;;;;;;29.07;24.13;;;15.50;99.90;;;;;;5051251;28;20535;-50
2022/09/11 03:07:32;;;;;;;30.33;23.60;;;15.50;99.90;;;;;;5050577;28;20444;-51
2022/09/11 03:09:57;;;;;;;28.43;24.27;;;15.60;99.90;;;;;;5050640;28;20436;-49
2022/09/11 03:12:23;;;;;;;30.70;22.73;;;15.50;99.90;;;;;;5051111;28;20892;-47
2022/09/11 03:14:49;;;;;;;37.77;25.80;;;15.50;99.90;;;;;;5050599;28;20182;-50
2022/09/11 03:17:16;;;;;;;34.73;26.80;;;15.50;99.90;;;;;;5050633;28;20664;-47
2022/09/11 03:19:41;;;;;;;39.23;26.83;;;15.40;99.90;;;;;;5057322;28;20455;-50
2022/09/11 03:22:07;;;;;;;38.70;26.83;;;15.50;99.90;;;;;;5053614;28;20879;-47
2022/09/11 03:24:33;;;;;;;33.57;26.67;;;15.40;99.90;;;;;;5050894;28;20185;-47
2022/09/11 03:26:58;;;;;;;34.63;26.83;;;15.40;99.90;;;;;;5050501;28;20182;-50
2022/09/11 03:29:24;;;;;;;39.50;29.03;;;15.40;99.90;;;;;;5050826;28;20216;-50
2022/09/11 03:31:50;;;;;;;36.17;26.97;;;15.50;99.90;;;;;;5050868;28;20823;-51
2022/09/11 03:34:16;;;;;;;39.97;28.27;;;15.50;99.90;;;;;;5050801;28;20662;-48
2022/09/11 03:36:43;;;;;;;42.57;29.80;;;15.50;99.90;;;;;;5049861;28;20185;-52
2022/09/11 03:39:08;;;;;;;38.53;28.70;;;15.50;99.90;;;;;;5050450;28;20494;-48
2022/09/11 03:41:34;;;;;;;42.30;31.47;;;15.50;99.90;;;;;;5055586;28;20420;-50
2022/09/11 03:44:00;;;;;;;45.80;31.00;;;15.40;99.90;;;;;;5050759;28;20182;-51
2022/09/11 03:46:26;;;;;;;39.60;30.17;;;15.40;99.90;;;;;;5049628;28;20332;-51
2022/09/11 03:48:52;;;;;;;46.67;29.87;;;15.40;99.90;;;;;;5049759;28;20668;-46
2022/09/11 03:51:18;;;;;;;38.40;28.60;;;15.40;99.90;;;;;;5050154;28;21065;-46
2022/09/11 03:53:44;;;;;;;40.37;29.17;;;15.40;99.90;;;;;;5050741;28;20473;-48
2022/09/11 03:56:10;;;;;;;42.37;30.13;;;15.40;99.90;;;;;;5050395;28;20181;-51
2022/09/11 03:58:36;;;;;;;45.77;31.30;;;15.40;99.90;;;;;;5049725;28;20185;-49
2022/09/11 04:01:11;;;;;;;47.70;32.67;;;15.40;99.90;;;;;;5050273;28;20429;-48
2022/09/11 04:03:38;;;;;;;41.97;29.20;;;15.40;99.90;;;;;;5047948;28;20185;-49
2022/09/11 04:06:04;;;;;;;41.73;29.70;;;15.40;99.90;;;;;;5043757;28;20523;-48
2022/09/11 04:08:32;;;;;;;44.87;31.50;;;15.40;99.90;;;;;;5049544;28;20558;-50
2022/09/11 04:11:01;;;;;;;42.10;29.17;;;15.40;99.90;;;;;;5049207;28;20205;-49
2022/09/11 04:13:29;;;;;;;43.90;29.20;;;15.40;99.90;;;;;;5050109;28;20795;-50
2022/09/11 04:16:00;;;;;;;41.83;30.23;;;15.50;99.90;;;;;;5050346;28;20422;-49
2022/09/11 04:18:26;;;;;;;38.20;28.73;;;15.50;99.90;;;;;;5047803;28;20462;-47
2022/09/11 04:20:51;;;;;;;38.73;29.50;;;15.60;99.90;;;;;;5058866;28;20464;-49
2022/09/11 04:23:17;;;;;;;38.00;29.50;;;15.60;99.90;;;;;;5048797;28;20768;-47
2022/09/11 04:25:42;;;;;;;39.30;28.70;;;15.60;99.90;;;;;;5049327;28;20706;-51
2022/09/11 04:28:08;;;;;;;45.40;31.80;;;15.60;99.90;;;;;;5049304;28;20208;-49
2022/09/11 04:30:37;;;;;;;42.53;31.50;;;15.60;99.90;;;;;;5050021;28;20193;-47
2022/09/11 04:33:04;;;;;;;42.70;30.70;;;15.60;99.90;;;;;;5049482;28;20204;-48
2022/09/11 04:35:30;;;;;;;46.63;30.80;;;15.50;99.90;;;;;;5049790;28;20436;-50
2022/09/11 04:37:57;;;;;;;45.17;31.57;;;15.50;99.90;;;;;;5047967;28;20784;-52
2022/09/11 04:40:22;;;;;;;47.17;33.20;;;15.50;99.90;;;;;;5049729;28;20475;-51
2022/09/11 04:42:48;;;;;;;39.40;29.07;;;15.50;99.90;;;;;;5049118;28;20420;-49
2022/09/11 04:45:14;;;;;;;43.47;30.40;;;15.50;99.90;;;;;;5049552;28;20188;-49
2022/09/11 04:47:39;;;;;;;42.07;31.97;;;15.60;99.90;;;;;;5048071;28;20544;-48
2022/09/11 04:50:06;;;;;;;42.10;31.13;;;15.60;99.90;;;;;;5049905;28;20194;-50
2022/09/11 04:52:33;;;;;;;42.10;29.77;;;15.50;99.90;;;;;;5049805;28;20435;-52
2022/09/11 04:54:58;;;;;;;50.20;32.37;;;15.60;99.90;;;;;;5048720;28;20431;-50
2022/09/11 04:57:24;;;;;;;50.80;32.00;;;15.60;99.90;;;;;;5048967;28;20412;-50
2022/09/11 04:59:51;;;;;;;45.27;30.20;;;15.50;99.90;;;;;;5049470;28;20716;-50
2022/09/11 05:02:17;;;;;;;51.90;32.03;;;15.50;99.90;;;;;;5049570;28;20193;-46
2022/09/11 05:04:42;;;;;;;46.30;31.97;;;15.50;99.90;;;;;;5049402;28;20428;-48
2022/09/11 05:07:12;;;;;;;43.87;30.43;;;15.50;99.90;;;;;;5049016;28;20186;-51
2022/09/11 05:09:37;;;;;;;48.30;33.27;;;15.40;99.90;;;;;;5049355;28;20195;-49
2022/09/11 05:12:03;;;;;;;46.00;32.17;;;15.40;99.90;;;;;;5049582;28;20412;-52
2022/09/11 05:14:30;;;;;;;44.77;31.63;;;15.50;99.90;;;;;;5049227;28;20186;-49
2022/09/11 05:16:56;;;;;;;49.80;33.93;;;15.50;99.90;;;;;;5049071;28;20537;-50
2022/09/11 05:19:22;;;;;;;45.70;32.33;;;15.50;99.90;;;;;;5053055;28;20462;-46
2022/09/11 05:21:47;;;;;;;43.27;30.60;;;15.50;99.90;;;;;;5054438;28;20182;-53
2022/09/11 05:24:13;;;;;;;44.73;31.40;;;15.60;99.90;;;;;;5049611;28;20592;-48
2022/09/11 05:26:39;;;;;;;45.60;31.67;;;15.60;99.90;;;;;;5048900;28;20670;-51
2022/09/11 05:29:11;;;;;;;43.20;30.67;;;15.60;99.90;;;;;;5048323;28;20429;-51
2022/09/11 05:31:36;;;;;;;42.00;30.50;;;15.60;99.90;;;;;;5044979;28;20186;-52
2022/09/11 05:34:03;;;;;;;50.63;32.67;;;15.60;99.90;;;;;;5049258;28;21347;-49
2022/09/11 05:36:33;;;;;;;41.93;29.47;;;15.60;99.90;;;;;;5049765;28;20680;-49
2022/09/11 05:38:59;;;;;;;46.53;31.90;;;15.60;99.90;;;;;;5053124;28;20463;-47
2022/09/11 05:41:25;;;;;;;45.10;32.80;;;15.60;99.90;;;;;;5051837;28;20562;-51
2022/09/11 05:43:50;;;;;;;48.37;31.10;;;15.60;99.90;;;;;;5052815;28;20514;-49
2022/09/11 05:46:18;;;;;;;44.23;30.50;;;15.60;99.90;;;;;;5051859;28;20420;-47
2022/09/11 05:48:44;;;;;;;46.57;30.97;;;15.60;99.90;;;;;;5052272;28;20186;-50
2022/09/11 05:51:15;;;;;;;38.70;28.97;;;15.60;99.90;;;;;;5051934;28;20477;-50
2022/09/11 05:53:41;;;;;;;44.87;30.27;;;15.60;99.90;;;;;;5052183;28;20668;-48
2022/09/11 05:56:10;;;;;;;39.60;28.13;;;15.60;99.90;;;;;;5052238;28;20420;-52
2022/09/11 05:58:36;;;;;;;43.67;29.43;;;15.60;99.90;;;;;;5052173;28;20459;-50
2022/09/11 06:01:16;;;;;;;46.53;30.10;;;15.60;99.90;;;;;;5052672;28;21163;-49
2022/09/11 06:03:42;;;;;;;40.57;29.10;;;15.60;99.90;;;;;;5052709;28;20552;-49
2022/09/11 06:06:11;;;;;;;40.93;28.20;;;15.70;99.90;;;;;;5051750;28;20852;-51
2022/09/11 06:08:38;;;;;;;38.00;27.03;;;15.70;99.90;;;;;;5050627;28;20416;-51
2022/09/11 06:11:06;;;;;;;41.43;27.67;;;15.70;99.90;;;;;;5052981;28;20755;-52
2022/09/11 06:13:35;;;;;;;42.00;27.17;;;15.70;99.90;;;;;;5045636;28;20846;-48
2022/09/11 06:16:01;;;;;;;36.83;28.17;;;15.70;99.90;;;;;;5039683;28;20961;-49
2022/09/11 06:18:28;;;;;;;38.37;28.97;;;15.70;99.90;;;;;;5051580;28;20484;-49
2022/09/11 06:20:58;;;;;;;43.93;28.50;;;15.70;99.90;;;;;;5061224;28;20464;-51
2022/09/11 06:23:24;;;;;;;41.13;28.33;;;15.70;99.90;;;;;;5051912;28;20465;-50
2022/09/11 06:25:53;;;;;;;45.13;29.70;;;15.60;99.90;;;;;;5052230;28;20432;-47
2022/09/11 06:28:22;;;;;;;49.93;30.90;;;15.60;99.90;;;;;;5050746;28;20424;-47
2022/09/11 06:30:52;;;;;;;48.53;30.97;;;15.60;99.90;;;;;;5051996;28;20427;-50
2022/09/11 06:33:21;;;;;;;41.33;28.03;;;15.50;99.90;;;;;;5051880;28;20439;-50
2022/09/11 06:36:00;;;;;;;42.33;28.77;;;15.50;99.90;;;;;;5051700;28;20416;-49
2022/09/11 06:38:26;;;;;;;40.40;28.93;;;15.50;99.90;;;;;;5051234;28;20432;-50
2022/09/11 06:40:53;;;;;;;39.30;29.10;;;15.50;99.90;;;;;;5051930;28;20460;-50
2022/09/11 06:43:19;;;;;;;40.90;28.40;;;15.60;99.90;;;;;;5053970;28;20420;-50
2022/09/11 06:45:47;;;;;;;42.20;29.57;;;15.60;99.90;;;;;;5051854;28;20404;-52
2022/09/11 06:48:14;;;;;;;46.00;29.53;;;15.60;99.90;;;;;;5048835;28;20432;-50
2022/09/11 06:50:40;;;;;;;46.93;29.30;;;15.60;99.90;;;;;;5051950;28;20524;-48
2022/09/11 06:53:10;;;;;;;45.00;30.03;;;15.70;99.90;;;;;;5051698;28;20511;-51
2022/09/11 06:55:35;;;;;;;42.73;29.37;;;15.60;99.90;;;;;;5051300;28;20221;-52
2022/09/11 06:58:01;;;;;;;45.20;29.80;;;15.60;99.90;;;;;;5050470;28;20963;-52
2022/09/11 07:00:27;;;;;;;48.43;31.73;;;15.60;99.90;;;;;;5053253;28;20573;-50
2022/09/11 07:02:53;;;;;;;40.53;27.80;;;15.60;99.90;;;;;;5050082;28;20218;-52
2022/09/11 07:05:21;;;;;;;44.20;29.37;;;15.60;99.90;;;;;;5051283;28;20498;-50
2022/09/11 07:07:49;;;;;;;41.40;28.40;;;15.70;99.90;;;;;;5050849;28;20953;-51
2022/09/11 07:10:15;;;;;;;45.90;29.83;;;15.70;99.90;;;;;;5051156;28;20424;-50
2022/09/11 07:12:41;;;;;;;44.03;29.90;;;15.70;99.90;;;;;;5049868;28;20417;-51
2022/09/11 07:15:08;;;;;;;43.60;29.37;;;15.70;99.90;;;;;;5047377;28;20435;-51
2022/09/11 07:17:35;;;;;;;43.13;28.17;;;15.70;99.90;;;;;;5043195;28;20494;-48
2022/09/11 07:20:02;;;;;;;42.67;28.10;;;15.80;99.90;;;;;;5051161;28;20518;-49
2022/09/11 07:22:29;;;;;;;40.67;27.57;;;15.90;99.90;;;;;;5049212;28;20421;-50
2022/09/11 07:24:56;;;;;;;41.50;29.80;;;15.90;99.90;;;;;;5052060;28;20825;-53
2022/09/11 07:27:22;;;;;;;44.20;29.87;;;15.90;99.90;;;;;;5062244;28;20462;-52
2022/09/11 07:29:48;;;;;;;46.00;30.53;;;15.80;99.90;;;;;;5050782;28;20435;-52
2022/09/11 07:32:14;;;;;;;41.70;27.63;;;15.80;99.90;;;;;;5056889;28;20428;-51
2022/09/11 07:34:40;;;;;;;40.30;28.67;;;15.70;99.90;;;;;;5061137;28;20190;-52
2022/09/11 07:37:06;;;;;;;45.80;30.37;;;15.80;99.90;;;;;;5057449;28;20411;-51
2022/09/11 07:39:32;;;;;;;43.17;30.70;;;15.80;99.90;;;;;;5070904;28;20731;-52
2022/09/11 07:41:58;;;;;;;42.93;29.80;;;15.90;99.90;;;;;;5070675;28;20193;-50
2022/09/11 07:44:23;;;;;;;41.17;29.50;;;15.90;99.90;;;;;;5069362;28;20415;-47
2022/09/11 07:46:50;;;;;;;42.00;29.07;;;15.90;99.90;;;;;;5069080;28;20506;-51
2022/09/11 07:49:16;;;;;;;46.03;29.43;;;15.90;99.90;;;;;;5070753;28;20191;-52
2022/09/11 07:51:42;;;;;;;40.53;28.37;;;15.90;99.90;;;;;;5053881;28;21031;-48
2022/09/11 07:54:10;;;;;;;45.43;29.27;;;16.00;99.90;;;;;;5052067;28;20531;-50
2022/09/11 07:56:36;;;;;;;41.23;28.20;;;16.10;99.90;;;;;;5054456;28;20830;-50
2022/09/11 07:59:06;;;;;;;41.60;29.73;;;16.20;99.90;;;;;;5055115;28;20503;-52
2022/09/11 08:01:32;;;;;;;41.67;29.20;;;16.20;99.90;;;;;;5042444;28;20531;-52
2022/09/11 08:04:00;;;;;;;40.93;25.87;;;16.30;99.90;;;;;;5050978;28;20505;-50
2022/09/11 08:06:29;;;;;;;40.60;28.50;;;16.30;99.90;;;;;;5050438;28;20856;-51
2022/09/11 08:08:57;;;;;;;38.60;26.40;;;16.40;99.90;;;;;;5046637;28;20439;-49
2022/09/11 08:11:25;;;;;;;40.73;28.43;;;16.40;99.90;;;;;;5049854;28;20538;-48
2022/09/11 08:13:53;;;;;;;47.30;29.40;;;16.40;99.90;;;;;;5052079;28;20448;-50
2022/09/11 08:16:20;;;;;;;40.07;28.70;;;16.40;99.90;;;;;;5049330;28;20480;-46
2022/09/11 08:18:47;;;;;;;45.60;31.27;;;16.40;99.90;;;;;;5048753;28;20440;-48
2022/09/11 08:21:13;;;;;;;45.70;29.83;;;16.40;99.90;;;;;;5057940;28;20452;-49
2022/09/11 08:23:41;;;;;;;41.73;29.30;;;16.40;99.90;;;;;;5052376;28;20538;-50
2022/09/11 08:26:20;;;;;;;48.67;30.30;;;16.40;99.90;;;;;;5044985;28;20498;-52
2022/09/11 08:28:49;;;;;;;42.00;29.57;;;16.40;99.90;;;;;;5048081;28;20435;-50
2022/09/11 08:31:16;;;;;;;42.10;29.50;;;16.30;99.90;;;;;;5051879;28;20452;-50
2022/09/11 08:33:42;;;;;;;48.87;30.03;;;16.30;99.90;;;;;;5051281;28;20428;-48
2022/09/11 08:36:09;;;;;;;45.23;29.00;;;16.30;99.90;;;;;;5048539;28;20455;-49
2022/09/11 08:38:36;;;;;;;39.07;27.87;;;16.30;99.90;;;;;;5049707;28;20440;-49
2022/09/11 08:41:19;;;;;;;40.77;26.47;;;16.30;99.90;;;;;;5053681;28;20610;-50
2022/09/11 08:43:52;;;;;;;40.53;27.63;;;16.40;99.90;;;;;;5051294;28;20539;-51
2022/09/11 08:46:21;;;;;;;40.13;26.87;;;16.50;99.90;;;;;;5049398;28;21040;-50
2022/09/11 08:49:15;;;;;;;40.33;27.13;;;16.50;99.90;;;;;;5049872;28;20445;-51
2022/09/11 08:51:43;;;;;;;43.00;27.40;;;16.40;99.90;;;;;;5050642;28;20546;-51
2022/09/11 08:54:28;;;;;;;41.17;27.90;;;16.50;99.90;;;;;;5051433;28;20463;-52
2022/09/11 08:57:04;;;;;;;41.10;27.40;;;16.40;99.90;;;;;;5046992;28;20506;-48
2022/09/11 08:59:40;;;;;;;44.87;28.20;;;16.40;99.90;;;;;;5048583;28;20459;-50
2022/09/11 09:02:28;;;;;;;46.70;31.37;;;16.40;99.90;;;;;;5048016;28;20487;-50
2022/09/11 09:05:13;;;;;;;43.60;26.77;;;16.50;99.90;;;;;;5052357;28;20444;-52
2022/09/11 09:08:03;;;;;;;39.90;26.67;;;16.50;99.90;;;;;;5051941;28;20430;-48
2022/09/11 09:10:47;;;;;;;40.83;25.43;;;16.60;99.90;;;;;;5047036;28;20983;-48
2022/09/11 09:13:31;;;;;;;46.77;29.53;;;16.70;99.90;;;;;;5051954;28;20439;-50
2022/09/11 09:16:15;;;;;;;44.10;26.90;;;16.80;99.90;;;;;;5052933;28;20443;-50
2022/09/11 09:18:47;;;;;;;46.13;29.47;;;16.90;99.90;;;;;;5060705;28;20440;-51
2022/09/11 09:21:31;;;;;;;39.60;26.00;;;16.90;99.90;;;;;;5054883;28;20480;-49
2022/09/11 09:24:00;;;;;;;46.10;30.13;;;17.00;99.90;;;;;;5051591;28;20432;-47
2022/09/11 09:26:34;;;;;;;48.17;30.93;;;17.00;99.90;;;;;;5050127;28;20450;-50
2022/09/11 09:29:07;;;;;;;41.73;27.97;;;16.90;99.90;;;;;;5053299;28;20448;-49
2022/09/11 09:31:37;;;;;;;54.70;32.37;;;16.90;99.90;;;;;;5051324;28;20890;-51
2022/09/11 09:34:19;;;;;;;50.20;31.37;;;16.80;99.90;;;;;;5049793;28;20506;-49
2022/09/11 09:37:03;;;;;;;54.70;33.50;;;16.80;99.90;;;;;;5057615;28;20444;-48
2022/09/11 09:39:30;;;;;;;53.27;32.97;;;16.90;99.90;;;;;;5046704;28;20475;-49
2022/09/11 09:42:09;;;;;;;57.30;33.83;;;17.00;99.90;;;;;;5051618;28;20455;-50
2022/09/11 09:45:02;;;;;;;55.83;33.97;;;17.00;99.90;;;;;;5051933;28;20436;-52
2022/09/11 09:47:28;;;;;;;61.20;33.63;;;17.10;99.90;;;;;;5055291;28;20872;-49
2022/09/11 09:49:57;;;;;;;59.33;34.90;;;17.20;99.90;;;;;;5054649;28;20475;-53
2022/09/11 09:52:25;;;;;;;62.03;35.37;;;17.40;99.90;;;;;;5050293;28;20332;-48
2022/09/11 09:55:01;;;;;;;55.83;33.47;;;17.60;99.90;;;;;;5052030;28;20443;-52
2022/09/11 09:57:36;;;;;;;59.10;33.93;;;17.70;99.90;;;;;;5046382;28;20566;-52
2022/09/11 10:00:13;;;;;;;61.70;36.50;;;17.70;99.90;;;;;;5054392;28;20500;-50
2022/09/11 10:02:40;;;;;;;61.67;34.83;;;17.70;99.90;;;;;;5054265;28;20839;-51
2022/09/11 10:05:17;;;;;;;61.57;36.70;;;17.80;99.90;;;;;;5052278;28;20483;-51
2022/09/11 10:08:02;;;;;;;54.83;32.97;;;17.90;99.90;;;;;;5049628;28;20455;-48
2022/09/11 10:10:36;;;;;;;58.10;35.40;;;18.10;99.90;;;;;;5051614;28;20463;-53
2022/09/11 10:13:23;;;;;;;57.73;35.07;;;18.20;99.90;;;;;;5063097;28;20533;-50
2022/09/11 10:15:51;;;;;;;55.57;35.50;;;18.50;99.90;;;;;;5060805;28;20795;-48
2022/09/11 10:18:29;;;;;;;50.07;31.73;;;18.70;99.90;;;;;;5065284;28;20435;-49
2022/09/11 10:21:34;;;;;;;51.93;31.83;;;18.90;99.90;;;;;;5050727;28;21037;-48
2022/09/11 10:24:01;;;;;;;51.13;31.50;;;18.90;99.90;;;;;;5050466;28;20459;-48
2022/09/11 10:26:33;;;;;;;48.67;30.10;;;19.00;99.90;;;;;;5049045;28;20468;-46
2022/09/11 10:29:11;;;;;;;48.50;30.87;;;19.10;99.90;;;;;;5052885;28;20452;-52
2022/09/11 10:31:48;;;;;;;40.47;28.10;;;19.20;99.90;;;;;;5056159;28;20475;-48
2022/09/11 10:34:17;;;;;;;43.07;29.10;;;19.10;99.90;;;;;;5049467;28;20538;-47
2022/09/11 10:37:06;;;;;;;39.00;28.47;;;19.10;99.90;;;;;;5052869;28;20459;-48
2022/09/11 10:39:35;;;;;;;40.40;28.50;;;19.20;99.90;;;;;;5051562;28;21251;-47
2022/09/11 10:42:12;;;;;;;45.93;30.33;;;19.30;99.90;;;;;;5053253;28;20479;-49
2022/09/11 10:44:42;;;;;;;41.87;28.93;;;19.30;99.90;;;;;;5043778;28;20467;-52
2022/09/11 10:47:20;;;;;;;42.77;27.33;;;19.20;99.90;;;;;;5054402;28;20450;-47
2022/09/11 10:49:47;;;;;;;40.30;27.70;;;19.20;99.90;;;;;;5060048;28;20810;-50
2022/09/11 10:52:13;;;;;;;41.10;25.77;;;19.30;99.90;;;;;;5059209;28;20483;-49
2022/09/11 10:54:58;;;;;;;40.60;27.27;;;19.50;99.90;;;;;;5060063;28;20622;-49
2022/09/11 10:57:42;;;;;;;38.80;27.77;;;19.60;99.90;;;;;;5068100;28;20212;-49
2022/09/11 11:00:25;;;;;;;41.83;27.80;;;19.60;99.90;;;;;;5052645;28;20460;-48
2022/09/11 11:02:57;;;;;;;35.30;27.30;;;19.70;99.90;;;;;;5052137;28;20542;-49
2022/09/11 11:05:38;;;;;;;35.13;24.90;;;19.70;99.90;;;;;;5060192;28;20458;-47
2022/09/11 11:08:11;;;;;;;30.70;24.77;;;19.70;99.90;;;;;;5057524;28;20511;-52
2022/09/11 11:11:12;;;;;;;34.20;24.97;;;19.70;99.90;;;;;;5060209;28;20454;-51
2022/09/11 11:13:50;;;;;;;38.30;29.73;;;19.70;99.90;;;;;;5053670;28;20560;-47
2022/09/11 11:16:50;;;;;;;36.83;26.93;;;19.70;99.90;;;;;;5054825;28;20538;-50
2022/09/11 11:19:24;;;;;;;37.70;26.97;;;19.60;99.90;;;;;;5042559;28;20578;-47
2022/09/11 11:22:06;;;;;;;31.27;24.60;;;19.80;99.90;;;;;;5050378;28;20415;-47
2022/09/11 11:24:42;;;;;;;34.20;27.23;;;19.90;99.90;;;;;;5049324;28;20436;-48
2022/09/11 11:27:28;;;;;;;34.70;25.90;;;19.90;99.90;;;;;;5048988;28;20849;-49
2022/09/11 11:30:09;;;;;;;36.50;27.97;;;20.00;99.90;;;;;;5040246;28;20416;-47
2022/09/11 11:32:52;;;;;;;39.60;29.43;;;19.80;99.90;;;;;;5050827;28;20442;-48
2022/09/11 11:35:44;;;;;;;38.90;28.73;;;19.80;99.90;;;;;;5049381;28;20439;-48
2022/09/11 11:38:23;;;;;;;36.37;26.70;;;19.90;99.90;;;;;;5038130;28;21162;-46
2022/09/11 11:40:54;;;;;;;40.83;28.57;;;20.00;99.90;;;;;;5050535;28;20546;-46
2022/09/11 11:43:26;;;;;;;40.10;27.30;;;20.00;99.90;;;;;;5049395;28;20428;-46
2022/09/11 11:46:01;;;;;;;34.70;26.50;;;20.00;99.90;;;;;;5041663;28;20424;-45
2022/09/11 11:48:43;;;;;;;33.23;24.53;;;20.00;99.90;;;;;;5048320;28;20506;-49
2022/09/11 11:51:15;;;;;;;35.20;26.73;;;20.10;99.90;;;;;;5039774;28;20416;-48
2022/09/11 11:53:58;;;;;;;34.47;24.70;;;20.20;99.90;;;;;;5049360;28;20511;-46
2022/09/11 11:56:40;;;;;;;35.20;25.40;;;20.20;99.90;;;;;;5049321;28;20826;-45
2022/09/11 11:59:33;;;;;;;36.50;27.00;;;20.40;99.90;;;;;;5049707;28;20455;-46
2022/09/11 12:02:04;;;;;;;39.93;28.30;;;20.40;99.90;;;;;;5049279;28;20404;-45
2022/09/11 12:04:39;;;;;;;41.67;28.20;;;20.30;99.90;;;;;;5048765;28;20961;-48
2022/09/11 12:07:13;;;;;;;37.70;27.77;;;20.20;99.90;;;;;;5055190;28;20410;-47
2022/09/11 12:09:46;;;;;;;37.53;27.87;;;20.10;99.90;;;;;;5070130;28;20505;-45
2022/09/11 12:12:12;;;;;;;37.87;27.87;;;20.00;99.90;;;;;;5049885;28;20489;-48
2022/09/11 12:14:48;;;;;;;37.40;27.70;;;19.90;99.90;;;;;;5046530;28;20452;-48
2022/09/11 12:17:27;;;;;;;36.10;27.30;;;19.80;99.90;;;;;;5055309;28;20476;-48
2022/09/11 12:20:10;;;;;;;39.07;29.40;;;19.90;99.90;;;;;;5050939;28;20480;-50
2022/09/11 12:22:46;;;;;;;39.87;31.70;;;20.00;99.90;;;;;;5048953;28;20513;-45
2022/09/11 12:25:20;;;;;;;40.50;31.37;;;20.00;99.90;;;;;;5046937;28;20447;-46
2022/09/11 12:27:47;;;;;;;42.77;31.60;;;20.00;99.90;;;;;;5046883;28;20446;-49
2022/09/11 12:30:15;;;;;;;41.40;31.17;;;19.80;99.90;;;;;;5051020;28;20456;-45
2022/09/11 12:32:44;;;;;;;38.90;29.63;;;19.60;99.90;;;;;;5049149;28;20486;-47
2022/09/11 12:35:22;;;;;;;37.23;30.70;;;19.70;99.90;;;;;;5049664;28;20431;-48
2022/09/11 12:38:18;;;;;;;38.67;28.93;;;19.80;99.90;;;;;;5046893;28;20447;-48
2022/09/11 12:41:06;;;;;;;38.23;27.47;;;20.00;99.90;;;;;;5046746;28;20940;-50
2022/09/11 12:43:34;;;;;;;37.33;28.80;;;20.20;99.90;;;;;;5050784;28;20774;-50
2022/09/11 12:46:02;;;;;;;35.80;28.03;;;20.30;99.90;;;;;;5045926;28;20457;-49
2022/09/11 12:48:41;;;;;;;38.03;29.80;;;20.50;99.90;;;;;;5048691;28;20523;-50
2022/09/11 12:51:38;;;;;;;37.07;30.60;;;20.60;99.90;;;;;;5047183;28;20955;-50